sensor_id;sensor_type;location;lat;lon;timestamp;temperature;humidity
25918;DHT22;13899;51.174;4.456;2024-02-28T00:00:51;6.90;99.90
25918;DHT22;13899;51.174;4.456;2024-02-28T00:03:18;7.30;99.90
25918;DHT22;13899;51.174;4.456;2024-02-28T00:05:43;7.30;99.90
25918;DHT22;13899;51.174;4.456;2024-02-28T00:08:11;6.70;99.90
25918;DHT22;13899;51.174;4.456;2024-02-28T00:10:36;5.90;99.90
25918;DHT22;13899;51.174;4.456;2024-02-28T00:13:02;5.70;99.90
25918;DHT22;13899;51.174;4.456;2024-02-28T00:15:27;6.20;99.90
25918;DHT22;13899;51.174;4.456;2024-02-28T00:17:53;6.50;99.90
25918;DHT22;13899;51.174;4.456;2024-02-28T00:20:19;6.90;99.90
25918;DHT22;13899;51.174;4.456;2024-02-28T00:22:44;7.10;99.90
25918;DHT22;13899;51.174;4.456;2024-02-28T00:25:10;6.70;99.90
25918;DHT22;13899;51.174;4.456;2024-02-28T00:27:36;6.20;99.90
25918;DHT22;13899;51.174;4.456;2024-02-28T00:30:05;6.40;99.90
25918;DHT22;13899;51.174;4.456;2024-02-28T00:32:33;6.70;99.90
25918;DHT22;13899;51.174;4.456;2024-02-28T00:34:59;7.10;99.90
25918;DHT22;13899;51.174;4.456;2024-02-28T00:37:24;7.30;99.90
25918;DHT22;13899;51.174;4.456;2024-02-28T00:39:50;7.20;99.90
25918;DHT22;13899;51.174;4.456;2024-02-28T00:42:16;7.20;99.90
25918;DHT22;13899;51.174;4.456;2024-02-28T00:44:42;7.40;99.90
25918;DHT22;13899;51.174;4.456;2024-02-28T00:47:10;7.10;99.90
25918;DHT22;13899;51.174;4.456;2024-02-28T00:49:36;7.00;99.90
25918;DHT22;13899;51.174;4.456;2024-02-28T00:52:02;7.00;99.90
25918;DHT22;13899;51.174;4.456;2024-02-28T00:54:28;6.90;99.90
25918;DHT22;13899;51.174;4.456;2024-02-28T00:56:53;6.70;99.90
25918;DHT22;13899;51.174;4.456;2024-02-28T00:59:19;6.60;99.90
25918;DHT22;13899;51.174;4.456;2024-02-28T01:01:47;6.80;99.90
25918;DHT22;13899;51.174;4.456;2024-02-28T01:04:17;7.00;99.90
25918;DHT22;13899;51.174;4.456;2024-02-28T01:06:42;6.90;99.90
25918;DHT22;13899;51.174;4.456;2024-02-28T01:09:08;6.60;99.90
25918;DHT22;13899;51.174;4.456;2024-02-28T01:11:34;5.80;99.90
25918;DHT22;13899;51.174;4.456;2024-02-28T01:14:00;4.90;99.90
25918;DHT22;13899;51.174;4.456;2024-02-28T01:16:25;4.60;99.90
25918;DHT22;13899;51.174;4.456;2024-02-28T01:18:51;4.80;99.90
25918;DHT22;13899;51.174;4.456;2024-02-28T01:21:17;5.20;99.90
25918;DHT22;13899;51.174;4.456;2024-02-28T01:23:42;5.70;99.90
25918;DHT22;13899;51.174;4.456;2024-02-28T01:26:08;5.80;99.90
25918;DHT22;13899;51.174;4.456;2024-02-28T01:28:33;5.30;99.90
25918;DHT22;13899;51.174;4.456;2024-02-28T01:30:59;5.20;99.90
25918;DHT22;13899;51.174;4.456;2024-02-28T01:33:25;5.20;99.90
25918;DHT22;13899;51.174;4.456;2024-02-28T01:35:51;5.60;99.90
25918;DHT22;13899;51.174;4.456;2024-02-28T01:38:39;5.70;99.90
25918;DHT22;13899;51.174;4.456;2024-02-28T01:41:05;5.20;99.90
25918;DHT22;13899;51.174;4.456;2024-02-28T01:43:31;5.40;99.90
25918;DHT22;13899;51.174;4.456;2024-02-28T01:45:59;5.50;99.90
25918;DHT22;13899;51.174;4.456;2024-02-28T01:48:26;5.60;99.90
25918;DHT22;13899;51.174;4.456;2024-02-28T01:50:52;5.90;99.90
25918;DHT22;13899;51.174;4.456;2024-02-28T01:53:17;6.30;99.90
25918;DHT22;13899;51.174;4.456;2024-02-28T01:55:44;6.40;99.90
25918;DHT22;13899;51.174;4.456;2024-02-28T01:58:10;6.10;99.90
25918;DHT22;13899;51.174;4.456;2024-02-28T02:00:36;5.60;99.90
25918;DHT22;13899;51.174;4.456;2024-02-28T02:03:03;4.80;99.90
25918;DHT22;13899;51.174;4.456;2024-02-28T02:05:28;4.30;99.90
25918;DHT22;13899;51.174;4.456;2024-02-28T02:07:54;4.00;99.90
25918;DHT22;13899;51.174;4.456;2024-02-28T02:10:20;4.00;99.90
25918;DHT22;13899;51.174;4.456;2024-02-28T02:12:46;3.90;99.90
25918;DHT22;13899;51.174;4.456;2024-02-28T02:15:12;4.20;99.90
25918;DHT22;13899;51.174;4.456;2024-02-28T02:17:37;4.20;99.90
25918;DHT22;13899;51.174;4.456;2024-02-28T02:20:03;3.80;99.90
25918;DHT22;13899;51.174;4.456;2024-02-28T02:22:39;3.80;99.90
25918;DHT22;13899;51.174;4.456;2024-02-28T02:25:05;3.70;99.90
25918;DHT22;13899;51.174;4.456;2024-02-28T02:27:30;3.50;99.90
25918;DHT22;13899;51.174;4.456;2024-02-28T02:29:56;3.40;99.90
25918;DHT22;13899;51.174;4.456;2024-02-28T02:32:21;3.50;99.90
25918;DHT22;13899;51.174;4.456;2024-02-28T02:34:47;3.60;99.90
25918;DHT22;13899;51.174;4.456;2024-02-28T02:37:12;3.70;99.90
25918;DHT22;13899;51.174;4.456;2024-02-28T02:39:38;3.70;99.90
25918;DHT22;13899;51.174;4.456;2024-02-28T02:42:03;3.50;99.90
25918;DHT22;13899;51.174;4.456;2024-02-28T02:44:29;3.50;99.90
25918;DHT22;13899;51.174;4.456;2024-02-28T02:46:54;3.40;99.90
25918;DHT22;13899;51.174;4.456;2024-02-28T02:49:20;3.30;99.90
25918;DHT22;13899;51.174;4.456;2024-02-28T02:51:45;3.30;99.90
25918;DHT22;13899;51.174;4.456;2024-02-28T02:54:11;3.40;99.90
25918;DHT22;13899;51.174;4.456;2024-02-28T02:56:36;3.30;99.90
25918;DHT22;13899;51.174;4.456;2024-02-28T02:59:02;3.50;99.90
25918;DHT22;13899;51.174;4.456;2024-02-28T03:01:28;3.40;99.90
25918;DHT22;13899;51.174;4.456;2024-02-28T03:03:53;3.70;99.90
25918;DHT22;13899;51.174;4.456;2024-02-28T03:06:19;3.70;99.90
25918;DHT22;13899;51.174;4.456;2024-02-28T03:08:44;3.50;99.90
25918;DHT22;13899;51.174;4.456;2024-02-28T03:11:10;3.50;99.90
25918;DHT22;13899;51.174;4.456;2024-02-28T03:13:36;3.60;99.90
25918;DHT22;13899;51.174;4.456;2024-02-28T03:16:03;3.60;99.90
25918;DHT22;13899;51.174;4.456;2024-02-28T03:18:28;3.70;99.90
25918;DHT22;13899;51.174;4.456;2024-02-28T03:20:54;3.60;99.90
25918;DHT22;13899;51.174;4.456;2024-02-28T03:23:20;3.80;99.90
25918;DHT22;13899;51.174;4.456;2024-02-28T03:25:45;4.40;99.90
25918;DHT22;13899;51.174;4.456;2024-02-28T03:28:11;4.80;99.90
25918;DHT22;13899;51.174;4.456;2024-02-28T03:30:36;4.40;99.90
25918;DHT22;13899;51.174;4.456;2024-02-28T03:33:02;3.70;99.90
25918;DHT22;13899;51.174;4.456;2024-02-28T03:35:27;3.40;99.90
25918;DHT22;13899;51.174;4.456;2024-02-28T03:37:53;3.40;99.90
25918;DHT22;13899;51.174;4.456;2024-02-28T03:40:18;3.70;99.90
25918;DHT22;13899;51.174;4.456;2024-02-28T03:42:44;3.60;99.90
25918;DHT22;13899;51.174;4.456;2024-02-28T03:45:09;3.70;99.90
25918;DHT22;13899;51.174;4.456;2024-02-28T03:47:35;3.40;99.90
25918;DHT22;13899;51.174;4.456;2024-02-28T03:50:00;3.30;99.90
25918;DHT22;13899;51.174;4.456;2024-02-28T03:52:29;3.20;99.90
25918;DHT22;13899;51.174;4.456;2024-02-28T03:54:55;3.20;99.90
25918;DHT22;13899;51.174;4.456;2024-02-28T03:57:20;3.10;99.90
25918;DHT22;13899;51.174;4.456;2024-02-28T03:59:46;3.20;99.90
25918;DHT22;13899;51.174;4.456;2024-02-28T04:02:11;3.10;99.90
25918;DHT22;13899;51.174;4.456;2024-02-28T04:04:37;3.20;99.90
25918;DHT22;13899;51.174;4.456;2024-02-28T04:07:02;3.30;99.90
25918;DHT22;13899;51.174;4.456;2024-02-28T04:09:28;3.20;99.90
25918;DHT22;13899;51.174;4.456;2024-02-28T04:11:53;3.20;99.90
25918;DHT22;13899;51.174;4.456;2024-02-28T04:14:19;3.20;99.90
25918;DHT22;13899;51.174;4.456;2024-02-28T04:16:44;3.20;99.90
25918;DHT22;13899;51.174;4.456;2024-02-28T04:19:10;3.10;99.90
25918;DHT22;13899;51.174;4.456;2024-02-28T04:21:36;3.30;99.90
25918;DHT22;13899;51.174;4.456;2024-02-28T04:24:02;3.80;99.90
25918;DHT22;13899;51.174;4.456;2024-02-28T04:26:28;4.00;99.90
25918;DHT22;13899;51.174;4.456;2024-02-28T04:28:54;3.80;99.90
25918;DHT22;13899;51.174;4.456;2024-02-28T04:31:20;3.60;99.90
25918;DHT22;13899;51.174;4.456;2024-02-28T04:33:45;3.40;99.90
25918;DHT22;13899;51.174;4.456;2024-02-28T04:36:11;3.50;99.90
25918;DHT22;13899;51.174;4.456;2024-02-28T04:38:36;3.60;99.90
25918;DHT22;13899;51.174;4.456;2024-02-28T04:41:02;3.40;99.90
25918;DHT22;13899;51.174;4.456;2024-02-28T04:43:28;3.30;99.90
25918;DHT22;13899;51.174;4.456;2024-02-28T04:45:54;3.20;99.90
25918;DHT22;13899;51.174;4.456;2024-02-28T04:48:19;3.20;99.90
25918;DHT22;13899;51.174;4.456;2024-02-28T04:50:45;3.00;99.90
25918;DHT22;13899;51.174;4.456;2024-02-28T04:53:10;2.90;99.90
25918;DHT22;13899;51.174;4.456;2024-02-28T04:55:36;2.90;99.90
25918;DHT22;13899;51.174;4.456;2024-02-28T04:58:01;2.80;99.90
25918;DHT22;13899;51.174;4.456;2024-02-28T05:00:27;2.70;99.90
25918;DHT22;13899;51.174;4.456;2024-02-28T05:02:52;2.70;99.90
25918;DHT22;13899;51.174;4.456;2024-02-28T05:05:18;2.80;99.90
25918;DHT22;13899;51.174;4.456;2024-02-28T05:07:43;2.90;99.90
25918;DHT22;13899;51.174;4.456;2024-02-28T05:10:09;2.70;99.90
25918;DHT22;13899;51.174;4.456;2024-02-28T05:12:34;2.70;99.90
25918;DHT22;13899;51.174;4.456;2024-02-28T05:15:00;2.80;99.90
25918;DHT22;13899;51.174;4.456;2024-02-28T05:17:25;2.90;99.90
25918;DHT22;13899;51.174;4.456;2024-02-28T05:19:51;2.90;99.90
25918;DHT22;13899;51.174;4.456;2024-02-28T05:22:16;2.90;99.90
25918;DHT22;13899;51.174;4.456;2024-02-28T05:24:42;2.90;99.90
25918;DHT22;13899;51.174;4.456;2024-02-28T05:27:10;2.90;99.90
25918;DHT22;13899;51.174;4.456;2024-02-28T05:29:36;2.80;99.90
25918;DHT22;13899;51.174;4.456;2024-02-28T05:32:01;2.80;99.90
25918;DHT22;13899;51.174;4.456;2024-02-28T05:34:27;2.80;99.90
25918;DHT22;13899;51.174;4.456;2024-02-28T05:36:52;2.80;99.90
25918;DHT22;13899;51.174;4.456;2024-02-28T05:39:18;2.80;99.90
25918;DHT22;13899;51.174;4.456;2024-02-28T05:41:43;2.80;99.90
25918;DHT22;13899;51.174;4.456;2024-02-28T05:44:09;2.90;99.90
25918;DHT22;13899;51.174;4.456;2024-02-28T05:46:34;2.90;99.90
25918;DHT22;13899;51.174;4.456;2024-02-28T05:49:02;2.80;99.90
25918;DHT22;13899;51.174;4.456;2024-02-28T05:51:28;2.90;99.90
25918;DHT22;13899;51.174;4.456;2024-02-28T05:53:53;2.80;99.90
25918;DHT22;13899;51.174;4.456;2024-02-28T05:56:18;2.90;99.90
25918;DHT22;13899;51.174;4.456;2024-02-28T05:58:45;3.00;99.90
25918;DHT22;13899;51.174;4.456;2024-02-28T06:01:13;2.90;99.90
25918;DHT22;13899;51.174;4.456;2024-02-28T06:03:39;2.90;99.90
25918;DHT22;13899;51.174;4.456;2024-02-28T06:06:05;2.80;99.90
25918;DHT22;13899;51.174;4.456;2024-02-28T06:08:32;2.80;99.90
25918;DHT22;13899;51.174;4.456;2024-02-28T06:10:57;2.80;99.90
25918;DHT22;13899;51.174;4.456;2024-02-28T06:13:23;2.80;99.90
25918;DHT22;13899;51.174;4.456;2024-02-28T06:15:48;2.80;99.90
25918;DHT22;13899;51.174;4.456;2024-02-28T06:18:14;2.80;99.90
25918;DHT22;13899;51.174;4.456;2024-02-28T06:20:40;2.80;99.90
25918;DHT22;13899;51.174;4.456;2024-02-28T06:23:05;2.80;99.90
25918;DHT22;13899;51.174;4.456;2024-02-28T06:25:32;3.00;99.90
25918;DHT22;13899;51.174;4.456;2024-02-28T06:28:00;3.00;99.90
25918;DHT22;13899;51.174;4.456;2024-02-28T06:30:28;3.10;99.90
25918;DHT22;13899;51.174;4.456;2024-02-28T06:32:58;3.10;99.90
25918;DHT22;13899;51.174;4.456;2024-02-28T06:35:24;3.40;99.90
25918;DHT22;13899;51.174;4.456;2024-02-28T06:37:50;3.40;99.90
25918;DHT22;13899;51.174;4.456;2024-02-28T06:40:17;3.40;99.90
25918;DHT22;13899;51.174;4.456;2024-02-28T06:42:42;3.40;99.90
25918;DHT22;13899;51.174;4.456;2024-02-28T06:45:08;3.40;99.90
25918;DHT22;13899;51.174;4.456;2024-02-28T06:47:34;3.40;99.90
25918;DHT22;13899;51.174;4.456;2024-02-28T06:49:59;3.40;99.90
25918;DHT22;13899;51.174;4.456;2024-02-28T06:52:26;3.50;99.90
25918;DHT22;13899;51.174;4.456;2024-02-28T06:54:51;3.50;99.90
25918;DHT22;13899;51.174;4.456;2024-02-28T06:57:17;3.60;99.90
25918;DHT22;13899;51.174;4.456;2024-02-28T06:59:43;3.50;99.90
25918;DHT22;13899;51.174;4.456;2024-02-28T07:02:10;3.50;99.90
25918;DHT22;13899;51.174;4.456;2024-02-28T07:04:35;3.50;99.90
25918;DHT22;13899;51.174;4.456;2024-02-28T07:07:01;3.60;99.90
25918;DHT22;13899;51.174;4.456;2024-02-28T07:09:27;3.50;99.90
25918;DHT22;13899;51.174;4.456;2024-02-28T07:11:56;3.60;99.90
25918;DHT22;13899;51.174;4.456;2024-02-28T07:14:23;3.70;99.90
25918;DHT22;13899;51.174;4.456;2024-02-28T07:16:48;3.70;99.90
25918;DHT22;13899;51.174;4.456;2024-02-28T07:19:14;3.80;99.90
25918;DHT22;13899;51.174;4.456;2024-02-28T07:21:40;4.00;99.90
25918;DHT22;13899;51.174;4.456;2024-02-28T07:24:06;4.10;99.90
25918;DHT22;13899;51.174;4.456;2024-02-28T07:26:33;4.30;99.90
25918;DHT22;13899;51.174;4.456;2024-02-28T07:28:58;4.30;99.90
25918;DHT22;13899;51.174;4.456;2024-02-28T07:31:24;4.40;99.90
25918;DHT22;13899;51.174;4.456;2024-02-28T07:33:49;4.70;99.90
25918;DHT22;13899;51.174;4.456;2024-02-28T07:36:15;4.70;99.90
25918;DHT22;13899;51.174;4.456;2024-02-28T07:38:43;4.40;99.90
25918;DHT22;13899;51.174;4.456;2024-02-28T07:41:09;4.40;99.90
25918;DHT22;13899;51.174;4.456;2024-02-28T07:43:35;4.50;99.90
25918;DHT22;13899;51.174;4.456;2024-02-28T07:46:08;4.50;99.90
25918;DHT22;13899;51.174;4.456;2024-02-28T07:48:53;4.60;99.90
25918;DHT22;13899;51.174;4.456;2024-02-28T07:51:18;4.60;99.90
25918;DHT22;13899;51.174;4.456;2024-02-28T07:53:45;4.60;99.90
25918;DHT22;13899;51.174;4.456;2024-02-28T07:56:15;4.50;99.90
25918;DHT22;13899;51.174;4.456;2024-02-28T07:58:41;4.60;99.90
25918;DHT22;13899;51.174;4.456;2024-02-28T08:01:07;4.60;99.90
25918;DHT22;13899;51.174;4.456;2024-02-28T08:03:34;4.80;99.90
25918;DHT22;13899;51.174;4.456;2024-02-28T08:06:00;4.70;99.90
25918;DHT22;13899;51.174;4.456;2024-02-28T08:08:25;4.70;99.90
25918;DHT22;13899;51.174;4.456;2024-02-28T08:10:51;4.70;99.90
25918;DHT22;13899;51.174;4.456;2024-02-28T08:13:18;4.80;99.90
25918;DHT22;13899;51.174;4.456;2024-02-28T08:15:44;4.80;99.90
25918;DHT22;13899;51.174;4.456;2024-02-28T08:18:10;4.90;99.90
25918;DHT22;13899;51.174;4.456;2024-02-28T08:20:38;4.90;99.90
25918;DHT22;13899;51.174;4.456;2024-02-28T08:23:04;5.00;99.90
25918;DHT22;13899;51.174;4.456;2024-02-28T08:25:30;5.00;99.90
25918;DHT22;13899;51.174;4.456;2024-02-28T08:27:56;5.10;99.90
25918;DHT22;13899;51.174;4.456;2024-02-28T08:30:22;5.40;99.90
25918;DHT22;13899;51.174;4.456;2024-02-28T08:32:52;5.50;99.90
25918;DHT22;13899;51.174;4.456;2024-02-28T08:35:18;5.60;99.90
25918;DHT22;13899;51.174;4.456;2024-02-28T08:37:44;5.70;99.90
25918;DHT22;13899;51.174;4.456;2024-02-28T08:40:09;5.70;99.90
25918;DHT22;13899;51.174;4.456;2024-02-28T08:42:35;5.80;99.90
25918;DHT22;13899;51.174;4.456;2024-02-28T08:45:01;5.60;99.90
25918;DHT22;13899;51.174;4.456;2024-02-28T08:47:28;5.70;99.90
25918;DHT22;13899;51.174;4.456;2024-02-28T08:49:54;5.70;99.90
25918;DHT22;13899;51.174;4.456;2024-02-28T08:52:20;5.60;99.90
25918;DHT22;13899;51.174;4.456;2024-02-28T08:54:46;5.60;99.90
25918;DHT22;13899;51.174;4.456;2024-02-28T08:57:15;5.60;99.90
25918;DHT22;13899;51.174;4.456;2024-02-28T09:00:01;5.70;99.90
25918;DHT22;13899;51.174;4.456;2024-02-28T09:02:26;5.90;99.90
25918;DHT22;13899;51.174;4.456;2024-02-28T09:04:52;5.90;99.90
25918;DHT22;13899;51.174;4.456;2024-02-28T09:07:29;5.80;99.90
25918;DHT22;13899;51.174;4.456;2024-02-28T09:09:55;5.60;99.90
25918;DHT22;13899;51.174;4.456;2024-02-28T09:12:21;5.80;99.90
25918;DHT22;13899;51.174;4.456;2024-02-28T09:17:23;6.10;99.90
25918;DHT22;13899;51.174;4.456;2024-02-28T09:19:48;6.30;99.90
25918;DHT22;13899;51.174;4.456;2024-02-28T09:22:14;6.20;99.90
25918;DHT22;13899;51.174;4.456;2024-02-28T09:24:40;6.20;99.90
25918;DHT22;13899;51.174;4.456;2024-02-28T09:27:06;6.30;99.90
25918;DHT22;13899;51.174;4.456;2024-02-28T09:29:31;6.60;99.90
25918;DHT22;13899;51.174;4.456;2024-02-28T09:32:00;6.60;99.90
25918;DHT22;13899;51.174;4.456;2024-02-28T09:34:26;6.90;99.90
25918;DHT22;13899;51.174;4.456;2024-02-28T09:36:52;6.80;99.90
25918;DHT22;13899;51.174;4.456;2024-02-28T09:39:17;6.80;99.90
25918;DHT22;13899;51.174;4.456;2024-02-28T09:41:43;6.80;99.90
25918;DHT22;13899;51.174;4.456;2024-02-28T09:44:09;6.90;99.90
25918;DHT22;13899;51.174;4.456;2024-02-28T09:46:35;7.10;99.90
25918;DHT22;13899;51.174;4.456;2024-02-28T09:49:03;7.20;99.90
25918;DHT22;13899;51.174;4.456;2024-02-28T09:51:30;7.60;99.90
25918;DHT22;13899;51.174;4.456;2024-02-28T09:53:55;7.70;99.90
25918;DHT22;13899;51.174;4.456;2024-02-28T09:56:24;7.50;99.90
25918;DHT22;13899;51.174;4.456;2024-02-28T09:58:49;7.50;99.90
25918;DHT22;13899;51.174;4.456;2024-02-28T10:01:15;7.50;99.90
25918;DHT22;13899;51.174;4.456;2024-02-28T10:03:42;7.50;99.90
25918;DHT22;13899;51.174;4.456;2024-02-28T10:06:09;7.50;99.90
25918;DHT22;13899;51.174;4.456;2024-02-28T10:08:34;7.60;99.90
25918;DHT22;13899;51.174;4.456;2024-02-28T10:11:02;7.90;99.90
25918;DHT22;13899;51.174;4.456;2024-02-28T10:13:27;7.70;99.90
25918;DHT22;13899;51.174;4.456;2024-02-28T10:15:53;7.90;99.90
25918;DHT22;13899;51.174;4.456;2024-02-28T10:18:19;8.00;99.90
25918;DHT22;13899;51.174;4.456;2024-02-28T10:20:47;8.40;99.90
25918;DHT22;13899;51.174;4.456;2024-02-28T10:23:28;8.20;99.90
25918;DHT22;13899;51.174;4.456;2024-02-28T10:25:54;8.10;99.90
25918;DHT22;13899;51.174;4.456;2024-02-28T10:28:29;8.10;99.90
25918;DHT22;13899;51.174;4.456;2024-02-28T10:30:55;8.70;99.90
25918;DHT22;13899;51.174;4.456;2024-02-28T10:33:21;8.70;99.90
25918;DHT22;13899;51.174;4.456;2024-02-28T10:35:46;8.70;99.90
25918;DHT22;13899;51.174;4.456;2024-02-28T10:38:16;8.40;99.90
25918;DHT22;13899;51.174;4.456;2024-02-28T10:40:42;8.40;99.90
25918;DHT22;13899;51.174;4.456;2024-02-28T10:43:08;8.40;99.90
25918;DHT22;13899;51.174;4.456;2024-02-28T10:45:35;8.40;99.90
25918;DHT22;13899;51.174;4.456;2024-02-28T10:48:01;8.40;99.90
25918;DHT22;13899;51.174;4.456;2024-02-28T10:50:27;8.40;99.90
25918;DHT22;13899;51.174;4.456;2024-02-28T10:52:53;8.30;99.90
25918;DHT22;13899;51.174;4.456;2024-02-28T10:55:20;8.30;99.90
25918;DHT22;13899;51.174;4.456;2024-02-28T10:57:46;8.40;99.90
25918;DHT22;13899;51.174;4.456;2024-02-28T11:00:13;8.50;99.90
25918;DHT22;13899;51.174;4.456;2024-02-28T11:02:41;8.70;99.90
25918;DHT22;13899;51.174;4.456;2024-02-28T11:05:08;8.50;99.90
25918;DHT22;13899;51.174;4.456;2024-02-28T11:07:34;8.60;99.90
25918;DHT22;13899;51.174;4.456;2024-02-28T11:10:04;8.90;99.90
25918;DHT22;13899;51.174;4.456;2024-02-28T11:12:30;9.20;99.90
25918;DHT22;13899;51.174;4.456;2024-02-28T11:14:59;8.90;99.90
25918;DHT22;13899;51.174;4.456;2024-02-28T11:17:28;8.90;99.90
25918;DHT22;13899;51.174;4.456;2024-02-28T11:19:54;9.00;99.90
25918;DHT22;13899;51.174;4.456;2024-02-28T11:22:20;9.00;99.90
25918;DHT22;13899;51.174;4.456;2024-02-28T11:24:49;8.70;99.90
25918;DHT22;13899;51.174;4.456;2024-02-28T11:27:15;8.70;99.90
25918;DHT22;13899;51.174;4.456;2024-02-28T11:29:41;8.70;99.90
25918;DHT22;13899;51.174;4.456;2024-02-28T11:32:06;8.90;99.90
25918;DHT22;13899;51.174;4.456;2024-02-28T11:34:33;8.90;99.90
25918;DHT22;13899;51.174;4.456;2024-02-28T11:36:59;8.70;99.90
25918;DHT22;13899;51.174;4.456;2024-02-28T11:39:24;8.80;99.90
25918;DHT22;13899;51.174;4.456;2024-02-28T11:41:50;9.00;99.90
25918;DHT22;13899;51.174;4.456;2024-02-28T11:44:16;9.20;99.90
25918;DHT22;13899;51.174;4.456;2024-02-28T11:46:46;9.20;99.90
25918;DHT22;13899;51.174;4.456;2024-02-28T11:49:15;9.30;99.90
25918;DHT22;13899;51.174;4.456;2024-02-28T11:51:41;9.40;99.90
25918;DHT22;13899;51.174;4.456;2024-02-28T11:54:07;9.30;99.90
25918;DHT22;13899;51.174;4.456;2024-02-28T11:56:34;9.20;99.90
25918;DHT22;13899;51.174;4.456;2024-02-28T11:58:59;9.40;99.90
25918;DHT22;13899;51.174;4.456;2024-02-28T12:04:01;9.50;99.90
25918;DHT22;13899;51.174;4.456;2024-02-28T12:06:27;9.20;99.90
25918;DHT22;13899;51.174;4.456;2024-02-28T12:08:52;9.40;99.90
25918;DHT22;13899;51.174;4.456;2024-02-28T12:11:18;9.60;99.90
25918;DHT22;13899;51.174;4.456;2024-02-28T12:13:44;9.50;99.90
25918;DHT22;13899;51.174;4.456;2024-02-28T12:16:10;9.40;99.90
25918;DHT22;13899;51.174;4.456;2024-02-28T12:18:35;9.30;99.90
25918;DHT22;13899;51.174;4.456;2024-02-28T12:21:02;9.30;99.90
25918;DHT22;13899;51.174;4.456;2024-02-28T12:23:27;9.30;99.90
25918;DHT22;13899;51.174;4.456;2024-02-28T12:25:53;9.40;99.90
25918;DHT22;13899;51.174;4.456;2024-02-28T12:28:18;9.20;99.90
25918;DHT22;13899;51.174;4.456;2024-02-28T12:30:44;9.50;99.90
25918;DHT22;13899;51.174;4.456;2024-02-28T12:33:12;9.40;99.90
25918;DHT22;13899;51.174;4.456;2024-02-28T12:35:37;9.30;99.90
25918;DHT22;13899;51.174;4.456;2024-02-28T12:38:03;9.50;99.90
25918;DHT22;13899;51.174;4.456;2024-02-28T12:40:29;9.50;99.90
25918;DHT22;13899;51.174;4.456;2024-02-28T12:42:55;9.70;99.90
25918;DHT22;13899;51.174;4.456;2024-02-28T12:45:20;9.70;99.90
25918;DHT22;13899;51.174;4.456;2024-02-28T12:47:46;9.90;99.90
25918;DHT22;13899;51.174;4.456;2024-02-28T12:50:11;9.90;99.90
25918;DHT22;13899;51.174;4.456;2024-02-28T12:52:37;9.60;99.90
25918;DHT22;13899;51.174;4.456;2024-02-28T12:55:03;9.70;99.90
25918;DHT22;13899;51.174;4.456;2024-02-28T12:57:28;9.50;99.90
25918;DHT22;13899;51.174;4.456;2024-02-28T12:59:55;9.70;99.90
25918;DHT22;13899;51.174;4.456;2024-02-28T13:02:21;9.80;99.90
25918;DHT22;13899;51.174;4.456;2024-02-28T13:04:47;9.80;99.90
25918;DHT22;13899;51.174;4.456;2024-02-28T13:07:12;9.90;99.90
25918;DHT22;13899;51.174;4.456;2024-02-28T13:09:38;9.80;99.90
25918;DHT22;13899;51.174;4.456;2024-02-28T13:12:04;9.60;99.90
25918;DHT22;13899;51.174;4.456;2024-02-28T13:14:30;9.80;99.90
25918;DHT22;13899;51.174;4.456;2024-02-28T13:16:56;10.00;99.90
25918;DHT22;13899;51.174;4.456;2024-02-28T13:19:23;10.10;99.90
25918;DHT22;13899;51.174;4.456;2024-02-28T13:21:49;10.20;99.90
25918;DHT22;13899;51.174;4.456;2024-02-28T13:24:14;10.00;99.90
25918;DHT22;13899;51.174;4.456;2024-02-28T13:26:41;10.00;99.90
25918;DHT22;13899;51.174;4.456;2024-02-28T13:29:07;10.00;99.90
25918;DHT22;13899;51.174;4.456;2024-02-28T13:31:35;10.10;99.90
25918;DHT22;13899;51.174;4.456;2024-02-28T13:34:00;10.30;99.90
25918;DHT22;13899;51.174;4.456;2024-02-28T13:36:28;10.40;99.90
25918;DHT22;13899;51.174;4.456;2024-02-28T13:38:54;10.40;99.90
25918;DHT22;13899;51.174;4.456;2024-02-28T13:41:19;11.00;99.90
25918;DHT22;13899;51.174;4.456;2024-02-28T13:43:45;11.40;99.90
25918;DHT22;13899;51.174;4.456;2024-02-28T13:46:11;11.40;99.90
25918;DHT22;13899;51.174;4.456;2024-02-28T13:48:37;11.20;99.90
25918;DHT22;13899;51.174;4.456;2024-02-28T13:51:03;11.10;99.90
25918;DHT22;13899;51.174;4.456;2024-02-28T13:53:29;10.80;99.90
25918;DHT22;13899;51.174;4.456;2024-02-28T13:55:55;10.90;99.90
25918;DHT22;13899;51.174;4.456;2024-02-28T13:58:20;11.00;99.90
25918;DHT22;13899;51.174;4.456;2024-02-28T14:00:46;11.20;99.90
25918;DHT22;13899;51.174;4.456;2024-02-28T14:03:12;11.20;99.90
25918;DHT22;13899;51.174;4.456;2024-02-28T14:05:37;11.00;99.90
25918;DHT22;13899;51.174;4.456;2024-02-28T14:08:03;11.10;99.90
25918;DHT22;13899;51.174;4.456;2024-02-28T14:10:29;11.10;99.90
25918;DHT22;13899;51.174;4.456;2024-02-28T14:12:55;11.10;99.90
25918;DHT22;13899;51.174;4.456;2024-02-28T14:15:21;11.00;99.90
25918;DHT22;13899;51.174;4.456;2024-02-28T14:17:49;10.90;99.90
25918;DHT22;13899;51.174;4.456;2024-02-28T14:20:15;10.90;99.90
25918;DHT22;13899;51.174;4.456;2024-02-28T14:22:40;10.90;99.90
25918;DHT22;13899;51.174;4.456;2024-02-28T14:25:12;10.90;99.90
25918;DHT22;13899;51.174;4.456;2024-02-28T14:27:44;11.00;99.90
25918;DHT22;13899;51.174;4.456;2024-02-28T14:30:10;10.90;99.90
25918;DHT22;13899;51.174;4.456;2024-02-28T14:32:36;11.00;99.90
25918;DHT22;13899;51.174;4.456;2024-02-28T14:35:05;10.90;99.90
25918;DHT22;13899;51.174;4.456;2024-02-28T14:37:35;11.20;99.90
25918;DHT22;13899;51.174;4.456;2024-02-28T14:40:01;11.10;99.90
25918;DHT22;13899;51.174;4.456;2024-02-28T14:42:27;10.90;99.90
25918;DHT22;13899;51.174;4.456;2024-02-28T14:44:52;10.90;99.90
25918;DHT22;13899;51.174;4.456;2024-02-28T14:47:19;11.10;99.90
25918;DHT22;13899;51.174;4.456;2024-02-28T14:49:45;11.40;99.90
25918;DHT22;13899;51.174;4.456;2024-02-28T14:52:10;11.50;99.90
25918;DHT22;13899;51.174;4.456;2024-02-28T14:54:36;11.40;99.90
25918;DHT22;13899;51.174;4.456;2024-02-28T14:57:04;11.50;99.90
25918;DHT22;13899;51.174;4.456;2024-02-28T14:59:29;11.40;99.90
25918;DHT22;13899;51.174;4.456;2024-02-28T15:01:55;11.10;99.90
25918;DHT22;13899;51.174;4.456;2024-02-28T15:04:21;11.00;99.90
25918;DHT22;13899;51.174;4.456;2024-02-28T15:06:46;10.90;99.90
25918;DHT22;13899;51.174;4.456;2024-02-28T15:09:12;11.20;99.90
25918;DHT22;13899;51.174;4.456;2024-02-28T15:11:38;11.00;99.90
25918;DHT22;13899;51.174;4.456;2024-02-28T15:14:04;10.90;99.90
25918;DHT22;13899;51.174;4.456;2024-02-28T15:16:29;10.80;99.90
25918;DHT22;13899;51.174;4.456;2024-02-28T15:18:55;10.60;99.90
25918;DHT22;13899;51.174;4.456;2024-02-28T15:21:20;10.60;99.90
25918;DHT22;13899;51.174;4.456;2024-02-28T15:23:46;10.60;99.90
25918;DHT22;13899;51.174;4.456;2024-02-28T15:26:14;10.70;99.90
25918;DHT22;13899;51.174;4.456;2024-02-28T15:28:39;10.70;99.90
25918;DHT22;13899;51.174;4.456;2024-02-28T15:31:05;10.60;99.90
25918;DHT22;13899;51.174;4.456;2024-02-28T15:33:31;10.70;99.90
25918;DHT22;13899;51.174;4.456;2024-02-28T15:35:56;10.60;99.90
25918;DHT22;13899;51.174;4.456;2024-02-28T15:38:22;10.60;99.90
25918;DHT22;13899;51.174;4.456;2024-02-28T15:40:47;10.60;99.90